Time;durP1;ratioP1;P1;durP2;ratioP2;P2;SDS_P1;SDS_P2;PMS_P1;PMS_P2;Temp;Humidity;BMP_temperature;BMP_pressure;BME280_temperature;BME280_humidity;BME280_pressure;Samples;Min_cycle;Max_cycle;Signal;HPM_P1;HPM_P2
2023/04/02 00:00:34;;;;;;;32.40;16.40;;;;;;;8.69;69.22;97881.33;105321;1255;107214;-70
2023/04/02 00:03:21;;;;;;;40.40;19.70;;;;;;;8.67;69.24;97884.86;105165;1269;97897;-70
2023/04/02 00:05:50;;;;;;;34.10;17.40;;;;;;;8.65;69.30;97885.05;105662;1254;96994;-70
2023/04/02 00:08:39;;;;;;;34.40;19.10;;;;;;;8.64;69.29;97889.88;105555;1255;109836;-69
2023/04/02 00:11:07;;;;;;;31.70;18.70;;;;;;;8.65;69.40;97893.91;105644;1254;102295;-69
2023/04/02 00:13:40;;;;;;;33.00;20.50;;;;;;;8.64;69.57;97897.17;105531;1256;107712;-71
2023/04/02 00:16:12;;;;;;;31.80;18.90;;;;;;;8.62;70.14;97900.46;105341;1260;96598;-71
2023/04/02 00:18:47;;;;;;;28.60;16.60;;;;;;;8.61;69.87;97902.52;105428;1253;97877;-71
2023/04/02 00:21:30;;;;;;;27.40;15.70;;;;;;;8.60;70.40;97909.86;105451;1255;109674;-70
2023/04/02 00:24:00;;;;;;;25.00;14.90;;;;;;;8.59;70.53;97911.52;105649;1275;102417;-69
2023/04/02 00:26:41;;;;;;;31.10;20.60;;;;;;;8.58;70.49;97914.95;105666;1256;107686;-70
2023/04/02 00:29:11;;;;;;;24.20;15.30;;;;;;;8.56;70.60;97921.84;105347;1254;97907;-70
2023/04/02 00:31:44;;;;;;;22.10;11.70;;;;;;;8.55;70.39;97926.36;105359;1254;96660;-70
2023/04/02 00:34:22;;;;;;;23.30;11.50;;;;;;;8.55;70.28;97926.73;105466;1255;109799;-69
2023/04/02 00:36:50;;;;;;;21.50;10.10;;;;;;;8.54;70.22;97930.31;105139;1259;102377;-69
2023/04/02 00:39:24;;;;;;;20.30;9.40;;;;;;;8.52;70.38;97931.73;105589;1254;107273;-70
2023/04/02 00:42:03;;;;;;;20.10;9.40;;;;;;;8.50;70.27;97931.73;105609;1256;96702;-69
2023/04/02 00:44:42;;;;;;;23.00;10.40;;;;;;;8.48;70.21;97931.86;105697;1254;97183;-69
2023/04/02 00:47:17;;;;;;;20.50;9.30;;;;;;;8.47;70.11;97934.95;105352;1255;109977;-71
2023/04/02 00:49:45;;;;;;;20.60;9.40;;;;;;;8.44;70.19;97933.20;105851;1252;102036;-70
2023/04/02 00:52:19;;;;;;;18.10;8.50;;;;;;;8.43;69.91;97934.92;105667;1255;96675;-70
2023/04/02 00:54:55;;;;;;;17.80;8.60;;;;;;;8.41;70.20;97935.97;105371;1257;97759;-70
2023/04/02 00:57:24;;;;;;;18.50;9.40;;;;;;;8.40;70.08;97938.00;105170;1253;97101;-70
2023/04/02 01:00:18;;;;;;;18.50;8.40;;;;;;;8.39;70.24;97943.72;105264;1256;109943;-72
2023/04/02 01:03:11;;;;;;;21.30;12.90;;;;;;;8.38;70.21;97945.02;105613;1254;102360;-70
2023/04/02 01:05:41;;;;;;;20.20;10.00;;;;;;;8.36;70.31;97949.02;105811;1253;107577;-70
2023/04/02 01:08:26;;;;;;;16.80;7.70;;;;;;;8.34;70.40;97951.11;105222;1259;97903;-69
2023/04/02 01:11:17;;;;;;;17.30;8.20;;;;;;;8.34;70.27;97952.89;105425;1256;97940;-73
2023/04/02 01:13:53;;;;;;;16.30;8.00;;;;;;;8.34;70.19;97956.60;105498;1256;108527;-70
2023/04/02 01:16:29;;;;;;;15.30;7.30;;;;;;;8.34;70.23;97956.44;105063;1267;102263;-70
2023/04/02 01:19:12;;;;;;;13.20;6.50;;;;;;;8.32;70.60;97958.54;105357;1256;107632;-77
2023/04/02 01:22:00;;;;;;;18.00;7.80;;;;;;;8.31;70.39;97964.33;105183;1256;97803;-70
2023/04/02 01:24:32;;;;;;;17.90;9.00;;;;;;;8.29;70.55;97963.79;105396;1256;97804;-71
2023/04/02 01:27:03;;;;;;;18.10;8.90;;;;;;;8.26;70.28;97960.30;105670;1256;109967;-70
2023/04/02 01:29:37;;;;;;;16.70;8.60;;;;;;;8.23;70.38;97965.10;105255;1260;101995;-71
2023/04/02 01:32:06;;;;;;;;;;;;;;;8.22;70.42;97973.34;105407;1254;107722;-68
2023/04/02 01:34:35;;;;;;;18.80;8.90;;;;;;;8.19;70.56;97973.04;105084;1258;96683;-69
2023/04/02 01:37:26;;;;;;;17.90;9.10;;;;;;;8.17;70.58;97976.70;105394;1256;97103;-70
2023/04/02 01:40:21;;;;;;;19.50;9.60;;;;;;;8.15;70.52;97978.66;105211;1254;109451;-71
2023/04/02 01:43:06;;;;;;;24.60;16.70;;;;;;;8.12;70.43;97985.05;105451;1260;102252;-70
2023/04/02 01:45:33;;;;;;;22.20;10.60;;;;;;;8.11;70.72;97991.71;105280;1257;107751;-70
2023/04/02 01:48:05;;;;;;;19.90;9.80;;;;;;;8.11;70.58;97990.84;105426;1254;96626;-71
2023/04/02 01:50:37;;;;;;;18.00;9.00;;;;;;;8.10;70.44;97998.49;105548;1254;96914;-71
2023/04/02 01:53:12;;;;;;;17.70;9.00;;;;;;;8.06;70.50;98001.77;105248;1255;109510;-70
2023/04/02 01:55:43;;;;;;;15.90;8.50;;;;;;;8.02;70.60;98005.06;105227;1261;102557;-71
2023/04/02 01:58:12;;;;;;;16.90;8.40;;;;;;;8.00;70.59;98012.98;105293;1266;107463;-70
2023/04/02 02:00:51;;;;;;;15.90;7.70;;;;;;;7.98;70.61;98012.62;105426;1257;96584;-70
2023/04/02 02:03:19;;;;;;;15.70;7.70;;;;;;;7.95;70.67;98015.55;105251;1259;97124;-70
2023/04/02 02:05:46;;;;;;;14.40;7.20;;;;;;;7.94;70.64;98019.02;105632;1254;109905;-69
2023/04/02 02:08:38;;;;;;;15.90;7.50;;;;;;;7.95;70.76;98020.48;105130;1275;96593;-71
2023/04/02 02:11:06;;;;;;;14.00;6.90;;;;;;;7.96;70.76;98019.69;104994;1259;107670;-71
2023/04/02 02:13:35;;;;;;;15.40;7.20;;;;;;;7.97;70.69;98025.63;105415;1257;96603;-68
2023/04/02 02:16:03;;;;;;;20.20;11.70;;;;;;;7.95;70.65;98026.13;105412;1255;97010;-70
2023/04/02 02:18:30;;;;;;;16.70;7.60;;;;;;;7.95;70.68;98025.44;105545;1254;109647;-70
2023/04/02 02:20:59;;;;;;;13.40;7.40;;;;;;;7.95;70.80;98026.80;105388;1253;96588;-70
2023/04/02 02:23:28;;;;;;;14.00;7.10;;;;;;;7.95;70.90;98030.20;105266;1270;107243;-69
2023/04/02 02:25:55;;;;;;;13.30;6.80;;;;;;;7.95;70.72;98033.77;105485;1257;96669;-73
2023/04/02 02:28:28;;;;;;;11.90;6.00;;;;;;;7.95;70.85;98035.98;105214;1257;96615;-70
2023/04/02 02:31:02;;;;;;;11.70;6.20;;;;;;;7.94;70.81;98037.64;105326;1256;109840;-70
2023/04/02 02:33:42;;;;;;;11.30;6.10;;;;;;;7.94;70.93;98040.02;105450;1256;102558;-70
2023/04/02 02:36:52;;;;;;;10.50;5.90;;;;;;;7.93;70.95;98043.42;105190;1257;107752;-72
2023/04/02 02:39:46;;;;;;;13.90;6.60;;;;;;;7.94;70.75;98045.48;105345;1264;96717;-70
2023/04/02 02:42:20;;;;;;;11.60;5.60;;;;;;;7.93;70.97;98051.20;105369;1256;97009;-71
2023/04/02 02:44:48;;;;;;;;;;;;;;;7.89;70.91;98059.05;105862;1256;110032;-70
2023/04/02 02:47:31;;;;;;;8.10;4.60;;;;;;;7.83;70.87;98061.11;105652;1256;102010;-77
2023/04/02 02:50:02;;;;;;;8.40;4.40;;;;;;;7.80;70.82;98064.71;105469;1256;107098;-70
2023/04/02 02:52:37;;;;;;;7.70;4.20;;;;;;;7.77;70.75;98062.46;105637;1259;97892;-70
2023/04/02 02:55:14;;;;;;;8.10;4.50;;;;;;;7.75;70.80;98067.16;105551;1256;98187;-70
2023/04/02 02:57:50;;;;;;;7.40;4.40;;;;;;;7.76;70.77;98072.06;105114;1266;109568;-71
2023/04/02 03:00:18;;;;;;;7.80;4.40;;;;;;;7.78;70.76;98074.17;105325;1267;102070;-71
2023/04/02 03:02:46;;;;;;;7.30;4.00;;;;;;;7.79;70.73;98074.55;105225;1257;197479;-70
2023/04/02 03:05:20;;;;;;;8.30;4.40;;;;;;;7.77;70.70;98070.40;105371;1257;96530;-71
2023/04/02 03:07:50;;;;;;;7.90;4.50;;;;;;;7.77;70.82;98071.98;105399;1260;97803;-71
2023/04/02 03:10:23;;;;;;;8.50;4.70;;;;;;;7.78;70.79;98068.43;105511;1255;109762;-70
2023/04/02 03:12:59;;;;;;;6.90;4.30;;;;;;;7.80;70.83;98070.36;105682;1257;102257;-70
2023/04/02 03:15:46;;;;;;;9.10;4.80;;;;;;;7.80;70.90;98074.79;105279;1254;107611;-69
2023/04/02 03:18:22;;;;;;;9.00;5.20;;;;;;;7.81;70.83;98076.14;105305;1264;96754;-76
2023/04/02 03:20:51;;;;;;;10.00;5.10;;;;;;;7.83;70.94;98075.42;105434;1256;96996;-69
2023/04/02 03:23:25;;;;;;;10.60;5.20;;;;;;;7.83;70.79;98077.52;105568;1256;109856;-70
2023/04/02 03:26:10;;;;;;;13.60;5.70;;;;;;;7.83;70.63;98081.08;105575;1254;102029;-69
2023/04/02 03:28:44;;;;;;;22.70;14.90;;;;;;;7.81;70.84;98085.09;105604;1254;107653;-75
2023/04/02 03:31:34;;;;;;;23.70;18.10;;;;;;;7.81;71.06;98085.84;105320;1256;96617;-70
2023/04/02 03:34:10;;;;;;;16.20;7.70;;;;;;;7.80;70.99;98090.62;105499;1254;96593;-69
2023/04/02 03:36:46;;;;;;;18.60;7.60;;;;;;;7.80;71.07;98093.61;105085;1256;109361;-70
2023/04/02 03:39:25;;;;;;;13.10;6.60;;;;;;;7.81;70.91;98092.16;105194;1264;102044;-71
2023/04/02 03:42:04;;;;;;;22.30;11.20;;;;;;;7.80;70.93;98100.49;105616;1257;107612;-72
2023/04/02 03:44:43;;;;;;;17.80;8.50;;;;;;;7.76;70.75;98103.16;105346;1256;96596;-69
2023/04/02 03:47:27;;;;;;;18.70;8.60;;;;;;;7.74;70.83;98102.41;105564;1256;98481;-70
2023/04/02 03:50:06;;;;;;;18.30;8.20;;;;;;;7.71;70.74;98105.63;105367;1258;109871;-69
2023/04/02 03:52:36;;;;;;;14.00;6.60;;;;;;;7.69;70.82;98109.45;105334;1267;102235;-70
2023/04/02 03:55:16;;;;;;;15.00;7.00;;;;;;;7.68;70.78;98112.54;105407;1256;107206;-70
2023/04/02 03:58:04;;;;;;;17.20;7.60;;;;;;;7.67;70.92;98112.30;105396;1256;97153;-70
2023/04/02 04:00:37;;;;;;;16.40;7.30;;;;;;;7.65;70.97;98116.19;105517;1255;97093;-69
2023/04/02 04:03:10;;;;;;;11.70;5.70;;;;;;;7.63;71.00;98119.28;105469;1253;108018;-69
2023/04/02 04:05:43;;;;;;;;;;;;;;;7.62;70.88;98125.39;105536;1256;102235;-70
2023/04/02 04:08:19;;;;;;;20.70;14.90;;;;;;;7.59;70.89;98128.01;105330;1256;107527;-70
2023/04/02 04:10:51;;;;;;;28.30;24.40;;;;;;;7.60;71.04;98133.40;105403;1257;96555;-69
2023/04/02 04:13:28;;;;;;;19.40;11.70;;;;;;;7.61;70.99;98134.95;105284;1259;96621;-70
2023/04/02 04:16:02;;;;;;;16.90;8.10;;;;;;;7.60;71.04;98136.28;105192;1267;109810;-70
2023/04/02 04:18:38;;;;;;;18.10;9.10;;;;;;;7.58;70.73;98138.70;105469;1270;102249;-70
2023/04/02 04:21:14;;;;;;;18.10;8.50;;;;;;;7.57;71.02;98140.17;105454;1256;107719;-69
2023/04/02 04:23:49;;;;;;;17.40;8.50;;;;;;;7.59;70.96;98140.60;105259;1256;96608;-69
2023/04/02 04:26:33;;;;;;;16.80;8.50;;;;;;;7.57;70.95;98147.08;105559;1256;97211;-69
2023/04/02 04:29:18;;;;;;;18.70;8.80;;;;;;;7.55;70.95;98148.85;105569;1260;110445;-71
2023/04/02 04:31:46;;;;;;;14.30;7.90;;;;;;;7.53;71.15;98151.26;105226;1254;102333;-69
2023/04/02 04:34:18;;;;;;;15.00;7.60;;;;;;;7.52;71.07;98155.55;105287;1260;107738;-69
2023/04/02 04:36:53;;;;;;;14.90;8.00;;;;;;;7.53;70.97;98157.05;105523;1256;97722;-69
2023/04/02 04:39:28;;;;;;;12.70;7.20;;;;;;;7.56;71.22;98155.98;105023;1265;97922;-69
2023/04/02 04:41:59;;;;;;;15.60;7.90;;;;;;;7.57;71.18;98159.27;105493;1254;109889;-70
2023/04/02 04:44:54;;;;;;;19.30;9.30;;;;;;;7.57;71.15;98161.20;105638;1257;101789;-70
2023/04/02 04:47:59;;;;;;;24.50;12.50;;;;;;;7.56;71.08;98161.59;105620;1256;107709;-70
2023/04/02 04:50:37;;;;;;;22.00;11.40;;;;;;;7.54;71.10;98162.47;105069;1265;98261;-70
2023/04/02 04:53:06;;;;;;;20.60;11.20;;;;;;;7.52;71.28;98163.47;105503;1256;96532;-70
2023/04/02 04:55:38;;;;;;;21.00;10.90;;;;;;;7.55;71.25;98167.88;105367;1254;109625;-70
2023/04/02 04:58:30;;;;;;;18.40;8.20;;;;;;;7.58;71.29;98173.09;105250;1265;102134;-70
2023/04/02 05:01:00;;;;;;;15.40;7.70;;;;;;;7.64;71.44;98175.70;105309;1258;107649;-70
2023/04/02 05:03:33;;;;;;;22.10;12.20;;;;;;;7.66;71.22;98182.77;105429;1270;96739;-69
2023/04/02 05:06:10;;;;;;;20.70;11.90;;;;;;;7.68;71.32;98182.09;105668;1253;97918;-69
2023/04/02 05:08:43;;;;;;;20.30;10.90;;;;;;;7.72;71.34;98182.84;105202;1259;109853;-70
2023/04/02 05:11:18;;;;;;;18.30;9.60;;;;;;;7.74;71.25;98185.30;105384;1257;101886;-70
2023/04/02 05:13:53;;;;;;;16.60;8.70;;;;;;;7.75;71.34;98185.23;105395;1256;107709;-71
2023/04/02 05:16:40;;;;;;;21.30;10.70;;;;;;;7.77;71.32;98184.95;105280;1259;97534;-69
2023/04/02 05:19:22;;;;;;;19.90;10.90;;;;;;;7.79;71.23;98189.56;105488;1262;97004;-69
2023/04/02 05:21:59;;;;;;;16.30;7.60;;;;;;;7.78;71.29;98191.91;105150;1264;109982;-69
2023/04/02 05:24:28;;;;;;;15.80;7.90;;;;;;;7.77;71.07;98194.50;105290;1257;102202;-70
2023/04/02 05:27:02;;;;;;;15.10;7.70;;;;;;;7.78;71.23;98189.84;105462;1257;107680;-69
2023/04/02 05:29:35;;;;;;;17.00;8.30;;;;;;;7.80;71.17;98194.96;105362;1264;96989;-69
2023/04/02 05:32:12;;;;;;;;;;;;;;;7.79;71.31;98193.80;105659;1253;96520;-70
2023/04/02 05:34:44;;;;;;;17.50;8.30;;;;;;;7.80;71.43;98197.27;105127;1260;109933;-69
2023/04/02 05:37:23;;;;;;;18.20;9.10;;;;;;;7.81;71.35;98202.09;105548;1254;102248;-72
2023/04/02 05:39:55;;;;;;;18.40;9.00;;;;;;;7.83;71.37;98204.43;105443;1252;107739;-70
2023/04/02 05:42:26;;;;;;;17.10;8.50;;;;;;;7.88;71.40;98207.93;105454;1255;96608;-71
2023/04/02 05:45:03;;;;;;;26.30;12.70;;;;;;;7.90;71.34;98209.90;105584;1254;96568;-69
2023/04/02 05:47:32;;;;;;;28.70;14.30;;;;;;;7.90;71.21;98213.45;105734;1257;109665;-70
2023/04/02 05:50:08;;;;;;;38.60;21.60;;;;;;;7.89;71.34;98216.34;105637;1255;102745;-69
2023/04/02 05:52:41;;;;;;;52.60;38.00;;;;;;;7.86;71.27;98222.38;105773;1257;108669;-70
2023/04/02 05:55:33;;;;;;;39.20;30.40;;;;;;;7.84;71.36;98228.22;105810;1254;96584;-70
2023/04/02 05:58:25;;;;;;;24.90;15.10;;;;;;;7.85;71.37;98231.27;106240;1257;96367;-71
2023/04/02 06:01:28;;;;;;;19.50;10.20;;;;;;;7.86;71.50;98229.95;108610;1254;109904;-72
2023/04/02 06:04:05;;;;;;;18.10;9.20;;;;;;;7.86;71.34;98231.59;108727;1254;102397;-70
2023/04/02 06:06:43;;;;;;;20.30;9.90;;;;;;;7.86;71.33;98232.81;108724;1253;107754;-70
2023/04/02 06:09:26;;;;;;;18.30;8.70;;;;;;;7.89;71.37;98240.70;108694;1254;94594;-71
2023/04/02 06:12:03;;;;;;;17.10;8.90;;;;;;;7.91;71.24;98244.27;108732;1254;94579;-71
2023/04/02 06:14:30;;;;;;;20.40;9.50;;;;;;;7.94;71.28;98250.45;105706;1258;109993;-70
2023/04/02 06:16:56;;;;;;;34.20;15.00;;;;;;;7.96;71.23;98253.77;105471;1257;96549;-70
2023/04/02 06:19:30;;;;;;;27.60;13.10;;;;;;;7.98;71.31;98256.65;108339;1254;96508;-70
2023/04/02 06:21:59;;;;;;;;;;;;;;;7.97;71.22;98262.00;108702;1253;94513;-71
2023/04/02 06:24:29;;;;;;;23.90;14.70;;;;;;;7.94;71.42;98265.40;106187;1254;96955;-70
2023/04/02 06:27:05;;;;;;;27.80;16.80;;;;;;;7.94;71.19;98268.81;105647;1266;109969;-71
2023/04/02 06:29:41;;;;;;;23.70;11.20;;;;;;;7.93;71.34;98270.77;105345;1267;102219;-70
2023/04/02 06:32:10;;;;;;;30.50;16.60;;;;;;;7.98;71.46;98273.80;104986;1261;107564;-70
2023/04/02 06:34:40;;;;;;;24.70;13.00;;;;;;;7.99;71.48;98278.28;105169;1260;96677;-76
2023/04/02 06:37:20;;;;;;;23.40;11.80;;;;;;;7.96;71.30;98280.45;105217;1267;97009;-70
2023/04/02 06:39:47;;;;;;;21.20;11.30;;;;;;;7.92;71.20;98285.13;105334;1258;110064;-70
2023/04/02 06:42:25;;;;;;;19.90;10.80;;;;;;;7.91;71.27;98282.38;105581;1257;97498;-71
2023/04/02 06:44:52;;;;;;;31.10;16.80;;;;;;;7.95;71.34;98284.95;104915;1271;106570;-70
2023/04/02 06:47:25;;;;;;;23.60;10.60;;;;;;;7.99;71.35;98283.23;105549;1257;97392;-71
2023/04/02 06:50:02;;;;;;;25.20;13.50;;;;;;;8.00;71.28;98287.91;105521;1258;97537;-70
2023/04/02 06:52:45;;;;;;;26.10;12.90;;;;;;;8.02;71.33;98287.95;105239;1257;109959;-70
2023/04/02 06:55:37;;;;;;;23.20;11.40;;;;;;;8.04;71.31;98289.75;105589;1256;102335;-70
2023/04/02 06:58:04;;;;;;;21.30;10.50;;;;;;;8.03;71.15;98294.77;105246;1266;107108;-70
2023/04/02 07:00:39;;;;;;;22.30;11.80;;;;;;;8.01;71.19;98297.70;105378;1257;96609;-71
2023/04/02 07:03:23;;;;;;;22.70;13.10;;;;;;;8.02;71.27;98297.68;105665;1254;97121;-71
2023/04/02 07:05:50;;;;;;;;;;;;;;;8.10;71.31;98300.29;105132;1257;109764;-69
2023/04/02 07:08:17;;;;;;;17.30;8.80;;;;;;;8.14;71.35;98299.23;105680;1256;96609;-70
2023/04/02 07:10:44;;;;;;;15.80;7.70;;;;;;;8.20;71.25;98304.83;105535;1254;96723;-70
2023/04/02 07:13:15;;;;;;;19.90;9.10;;;;;;;8.21;71.08;98308.63;105197;1267;96658;-71
2023/04/02 07:15:47;;;;;;;17.80;9.00;;;;;;;8.16;70.90;98311.41;105456;1254;97051;-70
2023/04/02 07:18:31;;;;;;;18.80;8.80;;;;;;;8.13;71.09;98311.14;105522;1256;108879;-70
2023/04/02 07:20:57;;;;;;;16.40;8.70;;;;;;;8.18;71.09;98318.54;105332;1258;102341;-71
2023/04/02 07:23:25;;;;;;;16.80;8.20;;;;;;;8.22;71.19;98317.23;105138;1254;96719;-85
2023/04/02 07:25:53;;;;;;;16.10;8.00;;;;;;;8.23;71.16;98322.92;105643;1258;96677;-70
2023/04/02 07:28:21;;;;;;;16.80;7.70;;;;;;;8.26;71.05;98325.77;105704;1254;96681;-71
2023/04/02 07:30:50;;;;;;;17.60;8.30;;;;;;;8.22;70.88;98327.06;105594;1256;109927;-70
2023/04/02 07:33:19;;;;;;;17.10;8.60;;;;;;;8.17;70.84;98329.88;105800;1254;96666;-75
2023/04/02 07:35:47;;;;;;;17.50;8.70;;;;;;;8.16;71.18;98334.21;105339;1257;107690;-71
2023/04/02 07:38:14;;;;;;;18.90;8.80;;;;;;;8.20;71.22;98342.42;105124;1257;97975;-71
2023/04/02 07:40:40;;;;;;;15.40;7.50;;;;;;;8.21;71.01;98344.45;105147;1267;97883;-71
2023/04/02 07:43:26;;;;;;;19.60;8.20;;;;;;;8.21;71.00;98346.78;105510;1255;96690;-71
2023/04/02 07:45:53;;;;;;;15.00;7.50;;;;;;;8.15;71.01;98348.05;105791;1254;102248;-73
2023/04/02 07:48:19;;;;;;;17.20;7.60;;;;;;;8.12;70.78;98350.95;105754;1253;96603;-75
2023/04/02 07:50:46;;;;;;;18.50;8.70;;;;;;;8.09;70.90;98355.21;105336;1257;96729;-75
2023/04/02 07:53:40;;;;;;;18.90;9.80;;;;;;;8.07;70.97;98350.82;105620;1254;96635;-75
2023/04/02 07:56:07;;;;;;;17.00;8.50;;;;;;;8.08;70.80;98358.13;105697;1253;102407;-73
2023/04/02 07:58:33;;;;;;;16.20;7.90;;;;;;;8.09;70.77;98358.57;105465;1254;97627;-74
2023/04/02 08:01:03;;;;;;;16.70;8.50;;;;;;;8.11;70.81;98359.17;105448;1257;96593;-74
2023/04/02 08:03:30;;;;;;;24.20;12.00;;;;;;;8.16;70.73;98358.08;105379;1253;97205;-72
2023/04/02 08:05:57;;;;;;;29.20;14.30;;;;;;;8.29;71.04;98361.39;105583;1254;96520;-74
2023/04/02 08:08:25;;;;;;;65.60;33.60;;;;;;;8.43;71.04;98361.73;105717;1254;96690;-76
2023/04/02 08:10:51;;;;;;;27.10;12.20;;;;;;;8.54;70.91;98365.94;105685;1257;96607;-78
2023/04/02 08:13:18;;;;;;;33.60;13.60;;;;;;;8.66;71.04;98368.37;105741;1256;96632;-71
2023/04/02 08:15:44;;;;;;;26.70;10.10;;;;;;;8.77;71.01;98369.63;105664;1253;96584;-71
2023/04/02 08:18:11;;;;;;;11.30;5.30;;;;;;;8.88;70.92;98369.33;105812;1264;96805;-74
2023/04/02 08:20:38;;;;;;;11.00;5.50;;;;;;;8.97;71.06;98368.98;105208;1257;107815;-74
2023/04/02 08:23:12;;;;;;;10.60;5.40;;;;;;;9.05;70.58;98373.00;105384;1254;96607;-73
2023/04/02 08:25:39;;;;;;;11.10;5.20;;;;;;;9.09;70.75;98378.18;105651;1253;97919;-74
2023/04/02 08:28:05;;;;;;;24.70;10.90;;;;;;;9.15;70.71;98377.55;105365;1257;96524;-74
2023/04/02 08:30:32;;;;;;;10.90;5.20;;;;;;;9.19;70.41;98383.77;105414;1255;97940;-73
2023/04/02 08:32:58;;;;;;;7.50;4.00;;;;;;;9.22;70.39;98388.83;105641;1256;96681;-74
2023/04/02 08:35:25;;;;;;;7.50;4.00;;;;;;;9.20;70.05;98388.27;105434;1257;96638;-77
2023/04/02 08:37:52;;;;;;;7.50;4.30;;;;;;;9.20;70.36;98394.33;105663;1254;109310;-72
2023/04/02 08:40:40;;;;;;;8.90;3.90;;;;;;;9.20;70.49;98395.19;105476;1257;96709;-75
2023/04/02 08:43:22;;;;;;;9.00;4.20;;;;;;;9.16;70.06;98398.49;105523;1265;107639;-70
2023/04/02 08:46:07;;;;;;;9.40;3.90;;;;;;;9.16;70.18;98396.24;105534;1256;96615;-71
2023/04/02 08:48:37;;;;;;;6.70;3.60;;;;;;;9.15;69.88;98402.15;105420;1275;96977;-71
2023/04/02 08:51:07;;;;;;;6.30;3.80;;;;;;;9.11;69.99;98401.58;105760;1254;109754;-70
2023/04/02 08:53:38;;;;;;;5.00;3.20;;;;;;;9.10;70.03;98407.11;105605;1257;102476;-71
2023/04/02 08:56:37;;;;;;;6.90;3.70;;;;;;;9.07;69.82;98405.73;105641;1254;108040;-72
2023/04/02 08:59:26;;;;;;;5.10;3.30;;;;;;;9.15;70.22;98407.41;105602;1257;96613;-72
2023/04/02 09:02:08;;;;;;;7.80;4.10;;;;;;;9.26;70.32;98410.27;105440;1256;97086;-71
2023/04/02 09:04:35;;;;;;;7.90;3.70;;;;;;;9.33;70.08;98412.61;105565;1256;109364;-71
2023/04/02 09:07:03;;;;;;;5.50;3.90;;;;;;;9.40;70.24;98412.58;105456;1255;97553;-72
2023/04/02 09:09:35;;;;;;;7.10;3.90;;;;;;;9.44;70.15;98414.94;105518;1272;96687;-77
2023/04/02 09:12:04;;;;;;;8.10;4.50;;;;;;;9.41;70.03;98415.84;105468;1254;96612;-70
2023/04/02 09:14:41;;;;;;;8.50;4.70;;;;;;;9.38;69.85;98416.96;105798;1255;98211;-69
2023/04/02 09:17:23;;;;;;;8.30;4.70;;;;;;;9.31;69.76;98420.03;105417;1254;109978;-71
2023/04/02 09:20:16;;;;;;;9.30;5.40;;;;;;;9.24;69.69;98424.08;105468;1252;102585;-72
2023/04/02 09:22:46;;;;;;;12.60;6.40;;;;;;;9.16;69.66;98425.39;105625;1254;107674;-70
2023/04/02 09:25:19;;;;;;;14.50;7.10;;;;;;;9.06;69.48;98429.34;105457;1254;97813;-71
2023/04/02 09:27:52;;;;;;;;;;;;;;;8.97;69.55;98426.66;105372;1254;96631;-70
2023/04/02 09:30:30;;;;;;;16.00;7.40;;;;;;;8.90;69.33;98428.80;105322;1258;109712;-71
2023/04/02 09:33:01;;;;;;;16.00;7.80;;;;;;;8.85;69.50;98432.86;105478;1256;101282;-73
2023/04/02 09:35:31;;;;;;;15.60;8.10;;;;;;;8.84;69.46;98433.50;105718;1254;107704;-69
2023/04/02 09:38:31;;;;;;;13.80;7.10;;;;;;;8.79;69.29;98438.63;105618;1254;96801;-71
2023/04/02 09:41:05;;;;;;;16.80;8.50;;;;;;;8.75;69.29;98443.52;105508;1253;97817;-74
2023/04/02 09:43:37;;;;;;;16.20;8.00;;;;;;;8.71;69.36;98446.83;105447;1253;109935;-70
2023/04/02 09:46:15;;;;;;;17.20;8.10;;;;;;;8.65;69.25;98453.09;105175;1256;102033;-78
2023/04/02 09:48:48;;;;;;;16.30;8.20;;;;;;;8.60;69.34;98453.96;105384;1254;107648;-72
2023/04/02 09:51:20;;;;;;;16.60;8.10;;;;;;;8.58;69.24;98455.23;105193;1256;97794;-76
2023/04/02 09:53:48;;;;;;;16.90;7.90;;;;;;;8.56;69.26;98460.34;105383;1254;96564;-72
2023/04/02 09:56:17;;;;;;;17.30;8.00;;;;;;;8.54;69.29;98458.35;105853;1254;109910;-73
2023/04/02 09:59:00;;;;;;;30.00;13.20;;;;;;;8.49;69.17;98459.59;105866;1256;102271;-71
2023/04/02 10:01:35;;;;;;;37.30;16.80;;;;;;;8.45;69.04;98460.33;105398;1257;107668;-76
2023/04/02 10:04:04;;;;;;;17.00;7.90;;;;;;;8.45;69.20;98457.73;105433;1253;97509;-71
2023/04/02 10:06:33;;;;;;;20.00;9.40;;;;;;;8.47;69.10;98459.68;105723;1251;97198;-71
2023/04/02 10:09:21;;;;;;;17.80;8.10;;;;;;;8.48;69.12;98459.42;105954;1256;109976;-73
2023/04/02 10:11:49;;;;;;;21.50;10.10;;;;;;;8.46;69.12;98464.50;105455;1254;101558;-71
2023/04/02 10:14:33;;;;;;;20.30;9.90;;;;;;;8.47;69.08;98464.81;105606;1252;107448;-78
2023/04/02 10:17:26;;;;;;;19.90;9.80;;;;;;;8.54;69.03;98472.31;105543;1256;96613;-71
2023/04/02 10:20:00;;;;;;;17.80;7.90;;;;;;;8.59;69.08;98472.25;105658;1267;96672;-70
2023/04/02 10:22:27;;;;;;;19.60;9.50;;;;;;;8.66;69.05;98473.20;105694;1255;109527;-70
2023/04/02 10:24:53;;;;;;;20.20;9.50;;;;;;;8.68;69.00;98476.92;105412;1257;96658;-71
2023/04/02 10:27:28;;;;;;;20.70;9.20;;;;;;;8.72;69.00;98477.91;105625;1254;96605;-75
2023/04/02 10:30:17;;;;;;;17.90;8.00;;;;;;;8.77;69.09;98478.02;105647;1253;97806;-77
2023/04/02 10:33:02;;;;;;;18.10;8.80;;;;;;;8.82;69.11;98478.71;105638;1256;98195;-72
2023/04/02 10:36:00;;;;;;;18.40;8.70;;;;;;;8.86;69.11;98481.22;105661;1252;109910;-72
2023/04/02 10:38:41;;;;;;;15.90;7.70;;;;;;;8.98;69.09;98484.27;105563;1256;102613;-73
2023/04/02 10:41:51;;;;;;;25.50;12.60;;;;;;;9.06;69.06;98484.49;105416;1254;107259;-72
2023/04/02 10:44:42;;;;;;;27.00;13.70;;;;;;;9.13;69.02;98489.84;105421;1257;96474;-82
2023/04/02 10:47:18;;;;;;;24.00;12.20;;;;;;;9.12;68.81;98498.92;105601;1260;97081;-72
2023/04/02 10:49:47;;;;;;;24.20;12.60;;;;;;;8.98;68.60;98501.90;105346;1268;110014;-77
2023/04/02 10:52:28;;;;;;;18.70;9.10;;;;;;;8.88;68.70;98505.31;105510;1254;102235;-72
2023/04/02 10:55:00;;;;;;;19.20;9.30;;;;;;;8.81;68.68;98506.88;105814;1254;107582;-77
2023/04/02 10:57:35;;;;;;;19.90;10.10;;;;;;;8.81;68.78;98507.24;105606;1256;96603;-72
2023/04/02 11:00:12;;;;;;;20.20;10.00;;;;;;;8.83;68.79;98509.95;105681;1254;97012;-72
2023/04/02 11:02:58;;;;;;;21.60;11.70;;;;;;;8.82;68.66;98510.69;105596;1255;109365;-71
2023/04/02 11:05:43;;;;;;;20.50;10.80;;;;;;;8.88;68.83;98517.38;105516;1267;102032;-76
2023/04/02 11:08:30;;;;;;;22.40;11.60;;;;;;;8.91;68.83;98516.45;105470;1270;107295;-71
2023/04/02 11:11:06;;;;;;;19.60;10.40;;;;;;;8.94;68.89;98514.56;105660;1253;97063;-73
2023/04/02 11:13:44;;;;;;;21.00;11.00;;;;;;;9.04;68.80;98517.93;105458;1254;97076;-73
2023/04/02 11:16:14;;;;;;;21.70;10.70;;;;;;;9.12;68.55;98517.52;105375;1257;109939;-75
2023/04/02 11:18:41;;;;;;;19.10;9.30;;;;;;;9.21;68.61;98518.06;105506;1257;102411;-77
2023/04/02 11:21:23;;;;;;;18.90;9.90;;;;;;;9.32;68.70;98520.06;105943;1253;107579;-78
2023/04/02 11:23:57;;;;;;;18.90;8.50;;;;;;;9.48;68.65;98521.48;105528;1253;96548;-71
2023/04/02 11:26:40;;;;;;;18.40;8.80;;;;;;;9.60;68.65;98525.52;105702;1253;96651;-71
2023/04/02 11:29:21;;;;;;;15.80;8.00;;;;;;;9.68;68.62;98528.30;105854;1254;109412;-73
2023/04/02 11:31:50;;;;;;;17.80;8.70;;;;;;;9.73;68.69;98534.64;105290;1254;102027;-71
2023/04/02 11:34:39;;;;;;;16.50;7.70;;;;;;;9.74;68.53;98536.16;106017;1252;107643;-72
2023/04/02 11:37:30;;;;;;;19.10;8.80;;;;;;;9.65;68.03;98534.02;105674;1254;96526;-73
2023/04/02 11:39:58;;;;;;;18.30;8.50;;;;;;;9.49;68.38;98538.61;105833;1253;97118;-78
2023/04/02 11:42:34;;;;;;;23.20;10.30;;;;;;;9.44;68.31;98546.25;106101;1253;110059;-75
2023/04/02 11:45:23;;;;;;;19.00;9.10;;;;;;;9.36;68.00;98550.57;107319;1255;102652;-77
2023/04/02 11:47:58;;;;;;;16.90;8.10;;;;;;;9.25;67.87;98555.98;105393;1257;107677;-73
2023/04/02 11:50:29;;;;;;;17.80;8.30;;;;;;;9.18;68.07;98553.52;105561;1256;97901;-78
2023/04/02 11:53:04;;;;;;;18.90;8.40;;;;;;;9.16;67.98;98556.81;106958;1252;96519;-72
2023/04/02 11:55:33;;;;;;;20.10;8.50;;;;;;;9.19;67.99;98556.43;108104;1254;109871;-71
2023/04/02 11:58:15;;;;;;;21.70;9.80;;;;;;;9.27;67.97;98559.89;108756;1251;102236;-72
2023/04/02 12:00:51;;;;;;;22.30;9.80;;;;;;;9.28;67.69;98559.83;108728;1252;108829;-74